Time;durP1;ratioP1;P1;durP2;ratioP2;P2;SDS_P1;SDS_P2;PMS_P1;PMS_P2;Temp;Humidity;BMP_temperature;BMP_pressure;BME280_temperature;BME280_humidity;BME280_pressure;Samples;Min_cycle;Max_cycle;Signal;HPM_P1;HPM_P2
2022/03/25 00:00:04;;;;;;;;;;;10.10;71.00;10.30;100396.00;;;;343975;28;96974;-89
2022/03/25 00:00:16;;;;;;;;;;;10.10;70.80;10.30;100387.00;;;;343412;28;83509;-89
2022/03/25 00:00:28;;;;;;;;;;;10.00;71.30;10.30;100400.00;;;;338969;28;96659;-89
2022/03/25 00:00:40;;;;;;;;;;;10.00;71.60;10.20;100396.00;;;;339241;28;83357;-89
2022/03/25 00:00:52;;;;;;;;;;;10.00;71.40;10.20;100399.00;;;;337000;28;96508;-89
2022/03/25 00:01:04;;;;;;;;;;;10.00;71.20;10.30;100398.00;;;;340548;28;83448;-89
2022/03/25 00:01:16;;;;;;;;;;;10.00;70.90;10.40;100398.00;;;;339470;28;97054;-89
2022/03/25 00:01:29;;;;;;;;;;;10.00;70.30;10.30;100405.00;;;;340560;28;82606;-89
2022/03/25 00:01:41;;;;;;;;;;;10.00;70.50;10.30;100401.00;;;;338454;28;96843;-89
2022/03/25 00:01:53;;;;;;;;;;;10.00;71.00;10.20;100400.00;;;;335251;29;82597;-90
2022/03/25 00:02:06;;;;;;;;;;;10.00;71.40;10.20;100398.00;;;;339679;28;95952;-90
2022/03/25 00:02:18;;;;;;;;;;;10.00;71.40;10.20;100394.00;;;;341382;28;83410;-89
2022/03/25 00:02:30;;;;;;;;;;;9.90;71.30;10.20;100405.00;;;;340666;28;96512;-89
2022/03/25 00:02:42;;;;;;;;;;;9.90;71.20;10.30;100399.00;;;;339098;28;83398;-89
2022/03/25 00:02:54;;;;;;;;;;;9.90;71.30;10.30;100401.00;;;;337954;28;98466;-89
2022/03/25 00:03:06;;;;;;;;;;;9.90;70.90;10.30;100403.00;;;;340532;28;82384;-89
2022/03/25 00:03:19;;;;;;;;;;;9.90;70.60;10.30;100398.00;;;;338279;28;97402;-89
2022/03/25 00:03:31;;;;;;;;;;;9.90;70.10;10.30;100399.00;;;;339136;28;83449;-89
2022/03/25 00:03:43;;;;;;;;;;;9.90;70.30;10.40;100393.00;;;;337077;28;97049;-89
2022/03/25 00:03:57;;;;;;;;;;;9.90;70.10;10.30;100404.00;;;;339226;28;83485;-89
2022/03/25 00:04:09;;;;;;;;;;;9.90;70.40;10.30;100398.00;;;;338492;28;92793;-89
2022/03/25 00:04:20;;;;;;;;;;;9.90;71.00;10.20;100398.00;;;;337916;28;82500;-89
2022/03/25 00:04:33;;;;;;;;;;;9.90;71.10;10.20;100389.00;;;;338325;28;96569;-89
2022/03/25 00:04:45;;;;;;;;;;;9.90;71.40;10.20;100404.00;;;;337674;28;83337;-89
2022/03/25 00:04:57;;;;;;;;;;;9.90;71.80;10.20;100396.00;;;;338346;28;97972;-89
2022/03/25 00:05:09;;;;;;;;;;;9.90;71.90;10.10;100399.00;;;;339195;28;82516;-89
2022/03/25 00:05:21;;;;;;;;;;;9.80;71.70;10.10;100399.00;;;;336926;28;96059;-89
2022/03/25 00:05:33;;;;;;;;;;;9.80;71.60;10.10;100386.00;;;;344715;28;83443;-89
2022/03/25 00:05:45;;;;;;;;;;;9.80;71.50;10.10;100390.00;;;;339724;28;97359;-89
2022/03/25 00:05:57;;;;;;;;;;;9.80;71.50;10.00;100385.00;;;;337809;28;83495;-89
2022/03/25 00:06:09;;;;;;;;;;;9.80;71.70;10.00;100396.00;;;;339694;28;95659;-89
2022/03/25 00:06:22;;;;;;;;;;;9.80;72.00;10.00;100398.00;;;;340064;28;83463;-89
2022/03/25 00:06:35;;;;;;;;;;;9.80;72.10;10.00;100401.00;;;;337158;28;94648;-89
2022/03/25 00:06:47;;;;;;;;;;;9.80;72.00;10.00;100395.00;;;;339124;28;83376;-89
2022/03/25 00:06:58;;;;;;;;;;;9.80;71.70;10.10;100400.00;;;;338341;28;98161;-89
2022/03/25 00:07:10;;;;;;;;;;;9.80;71.40;10.10;100392.00;;;;339291;28;83302;-89
2022/03/25 00:07:22;;;;;;;;;;;9.80;71.00;10.10;100397.00;;;;338410;28;94266;-90
2022/03/25 00:07:34;;;;;;;;;;;9.80;71.20;10.10;100389.00;;;;339177;28;83367;-89
2022/03/25 00:07:46;;;;;;;;;;;9.80;71.10;10.10;100395.00;;;;339470;28;95607;-89
2022/03/25 00:07:59;;;;;;;;;;;9.70;70.60;10.10;100400.00;;;;337736;28;83441;-89
2022/03/25 00:08:13;;;;;;;;;;;9.70;71.10;10.10;100397.00;;;;337076;28;96185;-89
2022/03/25 00:08:26;;;;;;;;;;;9.80;71.20;10.10;100392.00;;;;338663;28;83589;-89
2022/03/25 00:08:38;;;;;;;;;;;9.70;70.90;10.10;100398.00;;;;337902;28;96929;-89
2022/03/25 00:08:49;;;;;;;;;;;9.70;71.50;10.10;100389.00;;;;339919;28;83483;-89
2022/03/25 00:09:01;;;;;;;;;;;9.70;72.10;10.10;100394.00;;;;338299;28;97816;-89
2022/03/25 00:09:13;;;;;;;;;;;9.70;72.20;10.10;100395.00;;;;339236;28;82489;-89
2022/03/25 00:09:25;;;;;;;;;;;9.70;72.10;10.10;100395.00;;;;338288;28;96730;-88
2022/03/25 00:09:36;;;;;;;;;;;9.70;72.20;10.00;100395.00;;;;341919;28;83417;-89
2022/03/25 00:09:48;;;;;;;;;;;9.70;72.30;10.10;100401.00;;;;339572;28;96126;-89
2022/03/25 00:10:00;;;;;;;;;;;9.70;72.10;10.00;100393.00;;;;337779;28;83458;-89
2022/03/25 00:10:12;;;;;;;;;;;9.70;71.90;10.00;100389.00;;;;341128;28;95808;-89
2022/03/25 00:10:24;;;;;;;;;;;9.70;72.00;10.00;100397.00;;;;336502;28;82593;-89
2022/03/25 00:10:36;;;;;;;;;;;9.70;71.70;10.00;100389.00;;;;338418;28;96908;-89
2022/03/25 00:10:47;;;;;;;;;;;9.70;71.20;10.10;100394.00;;;;339159;28;83429;-89
2022/03/25 00:10:59;;;;;;;;;;;9.70;70.80;10.10;100393.00;;;;338259;28;97725;-89
2022/03/25 00:11:11;;;;;;;;;;;9.70;70.70;10.10;100394.00;;;;337843;28;82531;-89
2022/03/25 00:11:23;;;;;;;;;;;9.70;70.50;10.10;100391.00;;;;338116;28;97239;-89
2022/03/25 00:11:35;;;;;;;;;;;9.70;70.70;10.10;100392.00;;;;338488;28;82384;-89
2022/03/25 00:11:47;;;;;;;;;;;9.70;70.70;10.10;100397.00;;;;335780;28;96445;-89
2022/03/25 00:11:59;;;;;;;;;;;9.70;70.20;10.10;100393.00;;;;336469;28;82514;-89
2022/03/25 00:12:11;;;;;;;;;;;9.70;69.80;10.20;100392.00;;;;344036;28;95932;-89
2022/03/25 00:12:23;;;;;;;;;;;9.70;69.50;10.20;100393.00;;;;337832;28;83391;-89
2022/03/25 00:12:35;;;;;;;;;;;9.70;69.50;10.30;100394.00;;;;338528;28;95560;-89
2022/03/25 00:12:46;;;;;;;;;;;9.70;70.10;10.30;100393.00;;;;340494;28;83419;-89
2022/03/25 00:12:58;;;;;;;;;;;9.70;70.30;10.30;100392.00;;;;338317;28;97936;-89
2022/03/25 00:13:10;;;;;;;;;;;9.70;70.50;10.40;100391.00;;;;337581;28;83149;-89
2022/03/25 00:13:23;;;;;;;;;;;9.70;70.80;10.40;100388.00;;;;337025;28;95674;-89
2022/03/25 00:13:35;;;;;;;;;;;9.70;71.00;10.40;100397.00;;;;337867;28;83436;-89
2022/03/25 00:13:47;;;;;;;;;;;9.80;71.10;10.30;100396.00;;;;338511;28;94297;-89
2022/03/25 00:13:59;;;;;;;;;;;9.80;71.20;10.30;100397.00;;;;339114;28;83358;-89
2022/03/25 00:14:11;;;;;;;;;;;9.80;71.30;10.30;100393.00;;;;337107;28;95583;-89
2022/03/25 00:14:23;;;;;;;;;;;9.80;71.20;10.30;100401.00;;;;338890;28;83622;-89
2022/03/25 00:14:35;;;;;;;;;;;9.80;71.60;10.30;100404.00;;;;345118;27;96423;-89
2022/03/25 00:14:47;;;;;;;;;;;9.70;71.60;10.40;100385.00;;;;339147;28;82472;-89
2022/03/25 00:14:59;;;;;;;;;;;9.80;71.30;10.30;100393.00;;;;338371;28;96683;-89
2022/03/25 00:15:11;;;;;;;;;;;9.80;71.60;10.20;100397.00;;;;339217;28;83453;-89
2022/03/25 00:15:23;;;;;;;;;;;9.80;72.50;10.30;100390.00;;;;338207;28;95419;-89
2022/03/25 00:15:35;;;;;;;;;;;9.80;72.00;10.40;100401.00;;;;339246;28;83385;-89
2022/03/25 00:15:47;;;;;;;;;;;9.70;71.40;10.30;100383.00;;;;338465;28;95150;-89
2022/03/25 00:15:59;;;;;;;;;;;9.80;71.50;10.40;100391.00;;;;339173;28;83391;-89
2022/03/25 00:16:10;;;;;;;;;;;9.80;71.50;10.40;100395.00;;;;339676;28;95597;-89
2022/03/25 00:16:24;;;;;;;;;;;9.80;71.50;10.50;100391.00;;;;337796;28;83427;-89
2022/03/25 00:16:36;;;;;;;;;;;9.80;71.40;10.50;100395.00;;;;338217;28;96405;-89
2022/03/25 00:16:49;;;;;;;;;;;9.80;71.50;10.50;100393.00;;;;340507;28;83393;-89
2022/03/25 00:17:01;;;;;;;;;;;9.80;71.50;10.40;100380.00;;;;338260;28;97572;-89
2022/03/25 00:17:13;;;;;;;;;;;9.80;71.60;10.30;100396.00;;;;337907;28;82518;-89
2022/03/25 00:17:25;;;;;;;;;;;9.80;71.80;10.40;100387.00;;;;338305;28;96417;-89
2022/03/25 00:17:36;;;;;;;;;;;9.80;71.40;10.50;100384.00;;;;343265;28;82582;-88
2022/03/25 00:17:48;;;;;;;;;;;9.80;71.60;10.40;100401.00;;;;338364;28;94348;-89
2022/03/25 00:18:00;;;;;;;;;;;9.80;71.40;10.30;100389.00;;;;339187;28;83351;-89
2022/03/25 00:18:13;;;;;;;;;;;9.80;71.70;10.30;100393.00;;;;338376;28;96527;-90
2022/03/25 00:18:24;;;;;;;;;;;9.80;71.60;10.30;100392.00;;;;339026;28;83499;-89
2022/03/25 00:18:36;;;;;;;;;;;9.80;71.60;10.30;100397.00;;;;337174;28;95782;-90
2022/03/25 00:18:48;;;;;;;;;;;9.80;71.70;10.30;100387.00;;;;339127;28;83494;-90
2022/03/25 00:19:00;;;;;;;;;;;9.80;71.80;10.30;100387.00;;;;338399;28;96502;-90
2022/03/25 00:19:13;;;;;;;;;;;9.80;71.30;10.20;100396.00;;;;339106;28;82570;-90
2022/03/25 00:19:25;;;;;;;;;;;9.80;71.40;10.10;100390.00;;;;338076;28;96083;-89
2022/03/25 00:19:36;;;;;;;;;;;9.80;71.60;10.10;100394.00;;;;341830;28;83402;-89
2022/03/25 00:19:48;;;;;;;;;;;9.80;71.90;10.10;100382.00;;;;339751;28;96755;-88
2022/03/25 00:20:00;;;;;;;;;;;9.80;72.20;10.10;100396.00;;;;336493;28;83524;-89
2022/03/25 00:20:12;;;;;;;;;;;9.80;72.60;10.00;100386.00;;;;338382;28;95909;-89
2022/03/25 00:20:24;;;;;;;;;;;9.80;72.70;10.00;100400.00;;;;340391;28;83654;-89
2022/03/25 00:20:36;;;;;;;;;;;9.80;72.60;10.00;100397.00;;;;344539;28;95645;-89
2022/03/25 00:20:49;;;;;;;;;;;9.70;72.60;10.10;100391.00;;;;345910;28;83549;-90
2022/03/25 00:21:01;;;;;;;;;;;9.80;72.70;10.00;100379.00;;;;346706;28;97161;-89
2022/03/25 00:21:12;;;;;;;;;;;9.80;72.70;10.00;100388.00;;;;348966;27;82517;-89
2022/03/25 00:21:24;;;;;;;;;;;9.80;72.50;10.00;100391.00;;;;347258;27;94999;-89
2022/03/25 00:21:36;;;;;;;;;;;9.70;72.30;10.00;100384.00;;;;347542;28;82512;-89
2022/03/25 00:21:48;;;;;;;;;;;9.70;72.40;10.10;100391.00;;;;346787;28;96657;-89
2022/03/25 00:22:00;;;;;;;;;;;9.70;72.20;10.00;100392.00;;;;346070;28;83413;-89
2022/03/25 00:22:12;;;;;;;;;;;9.70;72.40;10.00;100387.00;;;;345393;28;96301;-89
2022/03/25 00:22:24;;;;;;;;;;;9.70;72.60;10.00;100391.00;;;;348920;27;82767;-89
2022/03/25 00:22:36;;;;;;;;;;;9.70;72.90;9.90;100394.00;;;;343998;28;96514;-89
2022/03/25 00:22:47;;;;;;;;;;;9.70;72.90;9.90;100397.00;;;;347571;27;84114;-89
2022/03/25 00:22:59;;;;;;;;;;;9.70;72.70;9.90;100393.00;;;;345080;28;96848;-89
2022/03/25 00:23:11;;;;;;;;;;;9.70;72.70;10.00;100391.00;;;;347481;28;83480;-89
2022/03/25 00:23:23;;;;;;;;;;;9.70;72.40;10.00;100386.00;;;;347664;27;96916;-90
2022/03/25 00:23:35;;;;;;;;;;;9.60;71.80;10.00;100390.00;;;;345989;28;83489;-89
2022/03/25 00:23:47;;;;;;;;;;;9.70;71.70;10.00;100382.00;;;;345246;28;97232;-89
2022/03/25 00:23:58;;;;;;;;;;;9.70;72.00;10.00;100388.00;;;;348909;27;83402;-89
2022/03/25 00:24:10;;;;;;;;;;;9.70;72.10;10.00;100387.00;;;;345418;28;93400;-89
2022/03/25 00:24:24;;;;;;;;;;;9.70;71.90;10.00;100386.00;;;;348364;27;83439;-89
2022/03/25 00:24:36;;;;;;;;;;;9.70;71.90;10.00;100388.00;;;;345349;28;96402;-89
2022/03/25 00:24:48;;;;;;;;;;;9.60;71.80;10.00;100390.00;;;;347463;27;83487;-89
2022/03/25 00:24:59;;;;;;;;;;;9.70;71.90;10.10;100390.00;;;;345364;28;96364;-88
2022/03/25 00:25:12;;;;;;;;;;;9.60;71.50;10.20;100389.00;;;;347281;28;82532;-89
2022/03/25 00:25:24;;;;;;;;;;;9.60;71.20;10.30;100393.00;;;;343930;28;95615;-89
2022/03/25 00:25:36;;;;;;;;;;;9.70;71.70;10.30;100396.00;;;;347606;28;82573;-89
2022/03/25 00:25:47;;;;;;;;;;;9.60;71.50;10.40;100396.00;;;;348105;27;96491;-89
2022/03/25 00:26:00;;;;;;;;;;;9.70;71.80;10.40;100388.00;;;;348963;27;83356;-89
2022/03/25 00:26:12;;;;;;;;;;;9.70;71.90;10.40;100395.00;;;;345243;28;96879;-89
2022/03/25 00:26:24;;;;;;;;;;;9.70;71.90;10.30;100398.00;;;;345625;28;83636;-89
2022/03/25 00:26:36;;;;;;;;;;;9.70;71.60;10.30;100397.00;;;;346604;28;96624;-89
2022/03/25 00:26:48;;;;;;;;;;;9.70;71.50;10.30;100387.00;;;;347341;28;83346;-89
2022/03/25 00:26:59;;;;;;;;;;;9.70;71.30;10.30;100398.00;;;;346634;28;97483;-89
2022/03/25 00:27:11;;;;;;;;;;;9.70;71.00;10.30;100395.00;;;;346059;28;83410;-89
2022/03/25 00:27:23;;;;;;;;;;;9.70;70.80;10.20;100388.00;;;;344452;28;96704;-89
2022/03/25 00:27:35;;;;;;;;;;;9.70;70.90;10.20;100393.00;;;;347579;27;82553;-89
2022/03/25 00:27:47;;;;;;;;;;;9.70;71.20;10.20;100395.00;;;;345416;28;95590;-89
2022/03/25 00:27:59;;;;;;;;;;;9.70;71.60;10.20;100395.00;;;;344630;28;82530;-90
2022/03/25 00:28:11;;;;;;;;;;;9.70;71.60;10.20;100386.00;;;;345337;28;96179;-89
2022/03/25 00:28:23;;;;;;;;;;;9.70;71.30;10.20;100392.00;;;;346178;28;83450;-89
2022/03/25 00:28:36;;;;;;;;;;;9.70;71.60;10.20;100392.00;;;;346622;28;94856;-89
2022/03/25 00:28:48;;;;;;;;;;;9.70;71.10;10.20;100398.00;;;;350269;27;83408;-89
2022/03/25 00:29:00;;;;;;;;;;;9.70;70.80;10.20;100390.00;;;;346740;28;96468;-89
2022/03/25 00:29:13;;;;;;;;;;;9.70;70.80;10.20;100396.00;;;;346199;28;83388;-89
2022/03/25 00:29:25;;;;;;;;;;;9.70;71.00;10.20;100390.00;;;;344822;28;96133;-89
2022/03/25 00:29:37;;;;;;;;;;;9.70;70.90;10.10;100382.00;;;;346466;28;83453;-89
2022/03/25 00:29:49;;;;;;;;;;;9.70;71.80;10.10;100393.00;;;;348067;27;95616;-89
2022/03/25 00:30:02;;;;;;;;;;;9.70;72.60;10.00;100388.00;;;;347532;28;83393;-89
2022/03/25 00:30:14;;;;;;;;;;;9.70;72.90;10.00;100387.00;;;;348139;27;96765;-89
2022/03/25 00:30:25;;;;;;;;;;;9.70;72.70;10.10;100385.00;;;;347878;27;83598;-89
2022/03/25 00:30:37;;;;;;;;;;;9.70;72.40;10.10;100393.00;;;;346771;28;96465;-89
2022/03/25 00:30:49;;;;;;;;;;;9.70;71.80;10.10;100395.00;;;;347431;28;82592;-89
2022/03/25 00:31:03;;;;;;;;;;;9.70;71.30;10.20;100396.00;;;;345215;28;98278;-89
2022/03/25 00:31:16;;;;;;;;;;;9.70;71.10;10.20;100389.00;;;;345946;28;83493;-89
2022/03/25 00:31:28;;;;;;;;;;;9.70;71.20;10.30;100390.00;;;;348161;27;96334;-89
2022/03/25 00:31:40;;;;;;;;;;;9.70;71.40;10.40;100385.00;;;;344723;28;84044;-89
2022/03/25 00:31:52;;;;;;;;;;;9.70;71.70;10.40;100396.00;;;;346551;28;96133;-89
2022/03/25 00:32:04;;;;;;;;;;;9.70;71.70;10.30;100395.00;;;;347532;28;82557;-89
2022/03/25 00:32:16;;;;;;;;;;;9.70;71.80;10.30;100395.00;;;;345176;28;96739;-89
2022/03/25 00:32:28;;;;;;;;;;;9.70;71.70;10.30;100384.00;;;;347312;28;82556;-89
2022/03/25 00:32:40;;;;;;;;;;;9.70;71.70;10.40;100391.00;;;;346579;27;96335;-89
2022/03/25 00:32:52;;;;;;;;;;;9.80;71.60;10.50;100392.00;;;;347411;28;83481;-90
2022/03/25 00:33:04;;;;;;;;;;;9.70;71.70;10.50;100389.00;;;;345294;28;97559;-90
2022/03/25 00:33:16;;;;;;;;;;;9.80;72.10;10.50;100390.00;;;;348830;27;83385;-89
2022/03/25 00:33:28;;;;;;;;;;;9.80;72.30;10.40;100387.00;;;;346698;27;94313;-89
2022/03/25 00:33:42;;;;;;;;;;;9.80;71.90;10.10;100386.00;;;;348952;27;82515;-89
2022/03/25 00:33:54;;;;;;;;;;;9.80;71.80;10.00;100386.00;;;;343853;28;95716;-89
2022/03/25 00:34:07;;;;;;;;;;;9.80;72.40;9.90;100390.00;;;;347327;27;83482;-89
2022/03/25 00:34:19;;;;;;;;;;;9.70;72.90;9.90;100388.00;;;;348168;27;96846;-89
2022/03/25 00:34:30;;;;;;;;;;;9.80;73.50;10.00;100393.00;;;;348945;27;83496;-89
2022/03/25 00:34:43;;;;;;;;;;;9.70;73.30;10.00;100392.00;;;;346701;27;95424;-89
2022/03/25 00:34:55;;;;;;;;;;;9.70;73.20;10.20;100391.00;;;;346185;28;82532;-89
2022/03/25 00:35:07;;;;;;;;;;;9.70;72.60;10.10;100394.00;;;;346596;28;98068;-89
2022/03/25 00:35:20;;;;;;;;;;;9.70;72.40;10.20;100392.00;;;;347188;28;83351;-90
2022/03/25 00:35:32;;;;;;;;;;;9.70;72.10;10.20;100390.00;;;;346598;28;99118;-89
2022/03/25 00:35:44;;;;;;;;;;;9.70;72.30;10.30;100401.00;;;;346113;28;82566;-89
2022/03/25 00:35:56;;;;;;;;;;;9.70;72.10;10.20;100393.00;;;;346629;28;97235;-89
2022/03/25 00:36:10;;;;;;;;;;;9.70;71.90;10.20;100400.00;;;;346060;28;83141;-89
2022/03/25 00:36:23;;;;;;;;;;;9.70;71.90;10.20;100398.00;;;;346633;28;96480;-90
2022/03/25 00:36:35;;;;;;;;;;;9.70;71.70;10.20;100399.00;;;;348935;27;82481;-89
2022/03/25 00:36:46;;;;;;;;;;;9.70;71.50;10.20;100392.00;;;;345332;28;96174;-90
2022/03/25 00:36:58;;;;;;;;;;;9.70;71.30;10.20;100395.00;;;;347556;28;82532;-89
2022/03/25 00:37:11;;;;;;;;;;;9.70;71.30;10.20;100398.00;;;;346581;28;96597;-89
2022/03/25 00:37:23;;;;;;;;;;;9.70;71.20;10.10;100393.00;;;;350251;27;82528;-90
2022/03/25 00:37:35;;;;;;;;;;;9.70;72.10;10.10;100388.00;;;;345477;28;93016;-90
2022/03/25 00:37:47;;;;;;;;;;;9.70;72.40;10.30;100401.00;;;;348931;27;83457;-90
2022/03/25 00:37:59;;;;;;;;;;;9.70;72.00;10.20;100401.00;;;;348192;27;94180;-90
2022/03/25 00:38:12;;;;;;;;;;;9.70;72.20;10.10;100398.00;;;;347452;27;83438;-89
2022/03/25 00:38:23;;;;;;;;;;;9.70;72.30;10.30;100396.00;;;;344573;28;95416;-89
2022/03/25 00:38:36;;;;;;;;;;;9.70;72.10;10.40;100383.00;;;;346064;28;82570;-90
2022/03/25 00:38:48;;;;;;;;;;;9.70;72.20;10.30;100390.00;;;;347853;27;96238;-89
2022/03/25 00:39:00;;;;;;;;;;;9.70;72.30;10.20;100395.00;;;;347521;28;83500;-89
2022/03/25 00:39:12;;;;;;;;;;;9.70;72.90;10.10;100391.00;;;;346693;28;96335;-90
2022/03/25 00:39:26;;;;;;;;;;;9.70;72.90;10.10;100383.00;;;;347320;27;82625;-89
2022/03/25 00:39:38;;;;;;;;;;;9.70;72.80;10.00;100391.00;;;;345363;28;95735;-90
2022/03/25 00:39:50;;;;;;;;;;;9.70;72.70;10.10;100392.00;;;;348932;27;83512;-89
2022/03/25 00:40:03;;;;;;;;;;;9.70;72.60;10.00;100389.00;;;;346686;27;95469;-89
2022/03/25 00:40:15;;;;;;;;;;;9.60;72.40;9.90;100395.00;;;;345966;28;83415;-89
2022/03/25 00:40:27;;;;;;;;;;;9.70;72.60;9.90;100393.00;;;;345476;28;94072;-89
2022/03/25 00:40:39;;;;;;;;;;;9.70;72.70;9.90;100391.00;;;;349030;27;82405;-89
2022/03/25 00:40:51;;;;;;;;;;;9.70;72.60;10.00;100389.00;;;;345297;28;97047;-89
2022/03/25 00:41:06;;;;;;;;;;;9.70;72.70;10.10;100388.00;;;;347513;28;82481;-89
2022/03/25 00:41:18;;;;;;;;;;;9.60;72.20;10.20;100397.00;;;;347878;27;96575;-89
2022/03/25 00:41:32;;;;;;;;;;;9.70;72.10;10.20;100396.00;;;;347354;28;82629;-89
2022/03/25 00:41:44;;;;;;;;;;;9.60;72.30;10.20;100387.00;;;;343931;28;95883;-89
2022/03/25 00:41:56;;;;;;;;;;;9.60;72.50;10.10;100391.00;;;;347429;28;83510;-89
2022/03/25 00:42:09;;;;;;;;;;;9.70;72.60;10.10;100383.00;;;;345327;28;94211;-89
2022/03/25 00:42:21;;;;;;;;;;;9.70;72.90;10.10;100385.00;;;;346172;28;82561;-89
2022/03/25 00:42:34;;;;;;;;;;;9.70;72.80;10.10;100391.00;;;;343799;28;97054;-90
2022/03/25 00:42:47;;;;;;;;;;;9.70;72.90;10.00;100390.00;;;;346069;28;83398;-89
2022/03/25 00:42:59;;;;;;;;;;;9.60;73.20;10.10;100382.00;;;;345416;28;96998;-89
2022/03/25 00:43:10;;;;;;;;;;;9.70;73.10;10.00;100385.00;;;;346151;28;82531;-89
2022/03/25 00:43:24;;;;;;;;;;;9.70;73.30;10.00;100387.00;;;;345270;28;97296;-89
2022/03/25 00:43:36;;;;;;;;;;;9.70;73.10;9.90;100387.00;;;;346238;28;83381;-88
2022/03/25 00:43:48;;;;;;;;;;;9.60;72.90;10.10;100386.00;;;;346715;28;95693;-90
2022/03/25 00:44:00;;;;;;;;;;;9.60;72.50;10.20;100385.00;;;;347518;28;83451;-90
2022/03/25 00:44:12;;;;;;;;;;;9.70;72.30;10.30;100394.00;;;;346764;27;96031;-89
2022/03/25 00:44:24;;;;;;;;;;;9.60;72.60;10.30;100382.00;;;;348506;27;83607;-89
2022/03/25 00:44:36;;;;;;;;;;;9.70;72.60;10.30;100386.00;;;;346674;28;95605;-89
2022/03/25 00:44:48;;;;;;;;;;;9.70;72.70;10.40;100387.00;;;;346067;28;82565;-89
2022/03/25 00:45:03;;;;;;;;;;;9.70;72.70;10.20;100384.00;;;;345060;28;96985;-89
2022/03/25 00:45:15;;;;;;;;;;;9.70;72.60;10.30;100387.00;;;;347600;28;83369;-89
2022/03/25 00:45:29;;;;;;;;;;;9.70;72.60;10.30;100389.00;;;;346427;27;96431;-89
2022/03/25 00:45:41;;;;;;;;;;;9.70;72.50;10.30;100392.00;;;;346210;28;82541;-89
2022/03/25 00:45:53;;;;;;;;;;;9.70;72.40;10.30;100391.00;;;;346652;27;96643;-89
2022/03/25 00:46:05;;;;;;;;;;;9.70;72.10;10.20;100385.00;;;;344659;28;82593;-89
2022/03/25 00:46:17;;;;;;;;;;;9.70;72.00;10.20;100382.00;;;;344025;28;96957;-88
2022/03/25 00:46:29;;;;;;;;;;;9.70;72.00;10.20;100382.00;;;;344746;28;83399;-89
2022/03/25 00:46:41;;;;;;;;;;;9.70;72.10;10.20;100388.00;;;;345279;28;97018;-88
2022/03/25 00:46:53;;;;;;;;;;;9.70;71.70;10.20;100383.00;;;;346152;28;82523;-89
2022/03/25 00:47:05;;;;;;;;;;;9.70;71.50;10.20;100383.00;;;;346721;28;96319;-89
2022/03/25 00:47:18;;;;;;;;;;;9.70;71.50;10.30;100393.00;;;;347657;27;83332;-88
2022/03/25 00:47:30;;;;;;;;;;;9.70;71.60;10.30;100388.00;;;;346481;28;96907;-89
2022/03/25 00:47:42;;;;;;;;;;;9.70;71.80;10.30;100384.00;;;;347623;28;83407;-89
2022/03/25 00:47:57;;;;;;;;;;;9.70;71.90;10.30;100390.00;;;;344983;28;96256;-88
2022/03/25 00:48:09;;;;;;;;;;;9.80;72.10;10.30;100382.00;;;;347441;28;82666;-89
2022/03/25 00:48:20;;;;;;;;;;;9.80;72.20;10.30;100387.00;;;;345167;28;96626;-89
2022/03/25 00:48:32;;;;;;;;;;;9.70;72.00;10.20;100387.00;;;;347505;28;83403;-89
2022/03/25 00:48:44;;;;;;;;;;;9.70;72.30;10.20;100386.00;;;;346647;27;97273;-88
2022/03/25 00:48:56;;;;;;;;;;;9.70;72.20;10.30;100387.00;;;;345967;28;83451;-89
2022/03/25 00:49:08;;;;;;;;;;;9.70;71.90;10.30;100393.00;;;;346696;28;94343;-89
2022/03/25 00:49:19;;;;;;;;;;;9.70;72.00;10.20;100393.00;;;;348973;27;83354;-89
2022/03/25 00:49:32;;;;;;;;;;;9.70;72.70;10.10;100382.00;;;;346608;27;97582;-89
2022/03/25 00:49:43;;;;;;;;;;;9.70;72.50;10.20;100376.00;;;;346141;28;83375;-89
2022/03/25 00:49:55;;;;;;;;;;;9.70;72.50;10.20;100384.00;;;;344037;28;96174;-88
2022/03/25 00:50:07;;;;;;;;;;;9.70;72.30;10.30;100396.00;;;;347426;27;82537;-89
2022/03/25 00:50:20;;;;;;;;;;;9.70;72.10;10.30;100381.00;;;;343734;28;95890;-89
2022/03/25 00:50:32;;;;;;;;;;;9.70;72.20;10.40;100383.00;;;;345000;28;83436;-88
2022/03/25 00:50:44;;;;;;;;;;;9.70;72.20;10.30;100390.00;;;;348106;27;96613;-89
2022/03/25 00:50:56;;;;;;;;;;;9.70;72.30;10.20;100374.00;;;;350368;27;83375;-89
2022/03/25 00:51:08;;;;;;;;;;;9.70;72.10;10.20;100380.00;;;;346681;28;96736;-89
2022/03/25 00:51:20;;;;;;;;;;;9.70;72.30;10.20;100392.00;;;;347474;28;83379;-88
2022/03/25 00:51:32;;;;;;;;;;;9.70;72.40;10.20;100390.00;;;;343841;28;97157;-89
2022/03/25 00:51:44;;;;;;;;;;;9.70;72.40;10.00;100379.00;;;;346172;28;82459;-89
2022/03/25 00:51:56;;;;;;;;;;;9.70;72.70;10.00;100384.00;;;;346789;28;95350;-89
2022/03/25 00:52:08;;;;;;;;;;;9.70;73.00;10.10;100385.00;;;;344640;28;83510;-89
2022/03/25 00:52:20;;;;;;;;;;;9.70;72.90;10.20;100389.00;;;;346832;28;96561;-89
2022/03/25 00:52:32;;;;;;;;;;;9.70;72.60;10.20;100376.00;;;;348914;27;83405;-88
2022/03/25 00:52:44;;;;;;;;;;;9.70;72.60;10.20;100388.00;;;;343740;28;96252;-89
2022/03/25 00:52:56;;;;;;;;;;;9.70;72.70;10.20;100381.00;;;;346036;28;82496;-89
2022/03/25 00:53:08;;;;;;;;;;;9.70;72.50;10.20;100384.00;;;;343894;28;95771;-89
2022/03/25 00:53:20;;;;;;;;;;;9.70;72.40;10.10;100385.00;;;;346137;28;82521;-88
2022/03/25 00:53:32;;;;;;;;;;;9.70;72.60;10.10;100373.00;;;;345241;28;97578;-89
2022/03/25 00:53:45;;;;;;;;;;;9.70;72.80;10.10;100380.00;;;;344813;28;82491;-89
2022/03/25 00:53:57;;;;;;;;;;;9.70;72.60;10.10;100387.00;;;;345393;28;95865;-89
2022/03/25 00:54:10;;;;;;;;;;;9.70;72.40;10.20;100380.00;;;;346113;28;82599;-89
2022/03/25 00:54:21;;;;;;;;;;;9.70;72.30;10.20;100386.00;;;;345280;28;96708;-89
2022/03/25 00:54:33;;;;;;;;;;;9.70;72.20;10.20;100388.00;;;;346125;28;83380;-89
2022/03/25 00:54:45;;;;;;;;;;;9.70;72.10;10.10;100378.00;;;;343878;28;96784;-88
2022/03/25 00:54:57;;;;;;;;;;;9.70;72.30;10.10;100379.00;;;;346128;28;82588;-88
2022/03/25 00:55:09;;;;;;;;;;;9.70;72.60;10.10;100382.00;;;;348039;27;96964;-88
2022/03/25 00:55:21;;;;;;;;;;;9.70;72.90;10.10;100382.00;;;;346155;28;83354;-88
2022/03/25 00:55:33;;;;;;;;;;;9.70;73.40;10.10;100380.00;;;;348084;27;97700;-89
2022/03/25 00:55:45;;;;;;;;;;;9.70;73.70;10.10;100388.00;;;;347229;28;83345;-88
2022/03/25 00:55:57;;;;;;;;;;;9.60;73.20;10.10;100373.00;;;;346738;28;97050;-88
2022/03/25 00:56:09;;;;;;;;;;;9.60;72.90;10.10;100386.00;;;;348875;27;82530;-89
2022/03/25 00:56:21;;;;;;;;;;;9.70;72.50;10.10;100389.00;;;;344512;28;96526;-89
2022/03/25 00:56:33;;;;;;;;;;;9.70;72.20;10.10;100377.00;;;;346047;28;83403;-89
2022/03/25 00:56:45;;;;;;;;;;;9.70;72.00;10.20;100391.00;;;;349456;27;96118;-89
2022/03/25 00:56:57;;;;;;;;;;;9.60;71.80;10.30;100386.00;;;;347621;28;83340;-89
2022/03/25 00:57:10;;;;;;;;;;;9.60;72.20;10.30;100384.00;;;;343962;28;96866;-89
2022/03/25 00:57:23;;;;;;;;;;;9.70;72.60;10.30;100387.00;;;;346521;28;83442;-88
2022/03/25 00:57:35;;;;;;;;;;;9.70;72.50;10.30;100389.00;;;;345323;28;97751;-89
2022/03/25 00:57:47;;;;;;;;;;;9.70;72.60;10.20;100390.00;;;;345923;28;83325;-89
2022/03/25 00:58:00;;;;;;;;;;;9.70;72.70;10.20;100394.00;;;;346619;28;96757;-88
2022/03/25 00:58:15;;;;;;;;;;;9.70;72.60;10.10;100380.00;;;;346111;28;83395;-88
2022/03/25 00:58:27;;;;;;;;;;;9.70;72.70;10.20;100391.00;;;;346676;28;96904;-89
2022/03/25 00:58:39;;;;;;;;;;;9.70;72.30;10.10;100390.00;;;;347468;28;83360;-89
2022/03/25 00:58:51;;;;;;;;;;;9.70;72.70;10.10;100386.00;;;;346655;27;96961;-88
2022/03/25 00:59:03;;;;;;;;;;;9.70;73.80;10.10;100389.00;;;;347578;28;82585;-88
2022/03/25 00:59:16;;;;;;;;;;;9.60;72.80;10.10;100388.00;;;;345128;28;97244;-88
2022/03/25 00:59:28;;;;;;;;;;;9.70;72.70;10.10;100390.00;;;;345798;28;83609;-89
2022/03/25 00:59:40;;;;;;;;;;;9.70;72.50;10.10;100391.00;;;;344035;28;94859;-89
2022/03/25 00:59:52;;;;;;;;;;;9.70;72.20;10.20;100391.00;;;;346964;28;83451;-89
2022/03/25 01:00:04;;;;;;;;;;;9.60;72.10;10.30;100388.00;;;;346387;28;96170;-88